Time;durP1;ratioP1;P1;durP2;ratioP2;P2;SDS_P1;SDS_P2;PMS_P1;PMS_P2;Temp;Humidity;BMP_temperature;BMP_pressure;BME280_temperature;BME280_humidity;BME280_pressure;Samples;Min_cycle;Max_cycle;Signal;HPM_P1;HPM_P2
2022/05/29 00:00:14;;;;;;;;;;;;;;;21.27;30.13;97408.19;4916671;29;1981;-74
2022/05/29 00:02:40;;;;;;;;;;;;;;;21.67;30.64;97413.31;4916584;29;1339;-73
2022/05/29 00:05:06;;;;;;;;;;;;;;;21.94;30.21;97415.53;4916709;29;971;-74
2022/05/29 00:07:32;;;;;;;;;;;;;;;21.71;30.21;97402.66;4916290;29;950;-73
2022/05/29 00:09:57;;;;;;;;;;;;;;;21.58;30.40;97404.72;4904271;29;1098;-73
2022/05/29 00:12:23;;;;;;;;;;;;;;;21.39;30.66;97400.94;4919859;29;1193;-74
2022/05/29 00:14:48;;;;;;;;;;;;;;;21.40;30.48;97404.56;4920160;29;974;-74
2022/05/29 00:17:14;;;;;;;;;;;;;;;21.35;30.39;97413.63;4919908;29;1019;-74
2022/05/29 00:19:40;;;;;;;;;;;;;;;21.37;30.51;97416.81;4952554;28;1915;-73
2022/05/29 00:22:05;;;;;;;;;;;;;;;21.31;30.30;97402.47;4997126;28;1008;-74
2022/05/29 00:24:31;;;;;;;;;;;;;;;21.36;30.22;97398.25;4972405;28;1066;-74
2022/05/29 00:26:56;;;;;;;;;;;;;;;21.40;30.23;97401.72;4977452;28;988;-73
2022/05/29 00:29:22;;;;;;;;;;;;;;;21.30;30.33;97396.00;4957855;29;1309;-73
2022/05/29 00:31:47;;;;;;;;;;;;;;;21.25;30.76;97399.38;4958035;29;1077;-74
2022/05/29 00:34:13;;;;;;;;;;;;;;;21.28;30.50;97398.47;4957883;29;1021;-73
2022/05/29 00:36:39;;;;;;;;;;;;;;;21.23;31.08;97384.88;4957946;29;1015;-73
2022/05/29 00:39:04;;;;;;;;;;;;;;;21.77;30.30;97383.81;4957658;28;1062;-74
2022/05/29 00:41:30;;;;;;;;;;;;;;;21.82;30.10;97380.38;4957443;29;1903;-73
2022/05/29 00:44:14;;;;;;;;;;;;;;;21.65;30.37;97375.38;4973980;28;979;-74
2022/05/29 00:46:46;;;;;;;;;;;;;;;21.36;30.81;97378.44;4957547;29;1082;-73
2022/05/29 00:49:12;;;;;;;;;;;;;;;21.49;30.45;97390.50;4938329;29;945;-73
2022/05/29 00:51:42;;;;;;;;;;;;;;;21.44;30.28;97372.06;4938077;29;993;-73
2022/05/29 00:54:08;;;;;;;;;;;;;;;21.37;30.50;97385.69;4938164;29;974;-74
2022/05/29 00:56:33;;;;;;;;;;;;;;;21.28;30.89;97404.13;4919174;29;1058;-74
2022/05/29 00:58:59;;;;;;;;;;;;;;;21.11;30.98;97402.69;4919139;29;1036;-73
2022/05/29 01:01:24;;;;;;;;;;;;;;;21.29;30.90;97391.53;4929538;29;1907;-73
2022/05/29 01:03:50;;;;;;;;;;;;;;;21.15;31.28;97366.59;4957468;29;1135;-74
2022/05/29 01:06:15;;;;;;;;;;;;;;;21.26;31.15;97375.50;4962353;28;1025;-74
2022/05/29 01:08:41;;;;;;;;;;;;;;;21.51;31.46;97363.31;4976694;28;951;-73
2022/05/29 01:11:19;;;;;;;;;;;;;;;21.68;31.55;97358.25;4960071;28;967;-74
2022/05/29 01:13:56;;;;;;;;;;;;;;;21.93;31.06;97345.19;4976379;28;1011;-74
2022/05/29 01:16:36;;;;;;;;;;;;;;;21.65;31.16;97330.06;4976442;28;1109;-74
2022/05/29 01:19:19;;;;;;;;;;;;;;;21.50;31.50;97335.47;4976098;28;1099;-74
2022/05/29 01:21:55;;;;;;;;;;;;;;;21.45;31.76;97330.38;4975764;28;1018;-74
2022/05/29 01:24:36;;;;;;;;;;;;;;;21.46;31.74;97334.81;4976529;28;1031;-74
2022/05/29 01:27:01;;;;;;;;;;;;;;;21.36;32.14;97344.50;4987751;28;960;-74
2022/05/29 01:29:32;;;;;;;;;;;;;;;21.49;31.80;97350.88;5017602;28;943;-73
2022/05/29 01:31:59;;;;;;;;;;;;;;;21.50;31.97;97360.94;4995342;28;1057;-74
2022/05/29 01:34:25;;;;;;;;;;;;;;;21.32;32.48;97379.34;4995453;28;981;-74
2022/05/29 01:36:53;;;;;;;;;;;;;;;21.41;32.06;97406.16;4995255;28;1392;-74
2022/05/29 01:39:39;;;;;;;;;;;;;;;21.25;32.35;97399.38;4995571;28;1910;-74
2022/05/29 01:42:13;;;;;;;;;;;;;;;21.29;32.16;97383.06;4994813;28;1066;-73
2022/05/29 01:44:40;;;;;;;;;;;;;;;21.75;32.30;97374.97;4995156;28;988;-74
2022/05/29 01:47:15;;;;;;;;;;;;;;;21.90;32.65;97365.94;4995419;28;1041;-74
2022/05/29 01:49:43;;;;;;;;;;;;;;;22.01;32.15;97380.47;4995427;28;1008;-74
2022/05/29 01:52:15;;;;;;;;;;;;;;;21.62;32.74;97399.72;4995255;28;951;-74
2022/05/29 01:54:50;;;;;;;;;;;;;;;21.40;32.89;97393.25;4956091;29;960;-74
2022/05/29 01:57:17;;;;;;;;;;;;;;;21.39;32.83;97394.50;4940419;29;997;-74
2022/05/29 01:59:46;;;;;;;;;;;;;;;21.43;32.30;97398.00;4940135;29;1898;-73
2022/05/29 02:02:13;;;;;;;;;;;;;;;21.43;32.68;97381.00;4960161;28;938;-74
2022/05/29 02:04:39;;;;;;;;;;;;;;;21.33;32.41;97383.75;4975567;28;985;-74
2022/05/29 02:09:52;;;;;;;;;;;;;;;21.28;32.75;97367.34;4975486;28;1054;-73
2022/05/29 02:12:18;;;;;;;;;;;;;;;21.43;32.55;97366.84;4975443;28;976;-74
2022/05/29 02:14:47;;;;;;;;;;;;;;;21.43;32.67;97364.03;4955607;29;981;-73
2022/05/29 02:17:16;;;;;;;;;;;;;;;21.52;32.48;97352.78;4917597;29;1011;-74
2022/05/29 02:19:44;;;;;;;;;;;;;;;21.51;32.18;97354.03;4898282;29;1914;-73
2022/05/29 02:22:13;;;;;;;;;;;;;;;21.43;32.68;97344.22;4883244;29;941;-74
2022/05/29 02:24:39;;;;;;;;;;;;;;;21.37;32.74;97349.69;4861042;29;1112;-73
2022/05/29 02:27:06;;;;;;;;;;;;;;;21.18;33.12;97351.53;4861127;29;972;-74
2022/05/29 02:29:32;;;;;;;;;;;;;;;21.21;32.83;97355.50;4861355;29;1117;-74
2022/05/29 02:32:06;;;;;;;;;;;;;;;21.30;32.92;97352.78;4861486;29;1236;-74
2022/05/29 02:34:43;;;;;;;;;;;;;;;21.33;32.75;97366.00;4861479;29;1004;-74
2022/05/29 02:37:20;;;;;;;;;;;;;;;21.42;32.52;97368.13;4876532;29;1004;-73
2022/05/29 02:39:51;;;;;;;;;;;;;;;21.41;32.32;97373.00;4861263;29;1977;-74
2022/05/29 02:42:17;;;;;;;;;;;;;;;21.26;32.51;97372.66;4861130;29;1517;-74
2022/05/29 02:45:01;;;;;;;;;;;;;;;21.43;32.27;97375.34;4859925;29;1245;-74
2022/05/29 02:47:42;;;;;;;;;;;;;;;21.14;32.51;97392.50;4849217;29;928;-74
2022/05/29 02:50:42;;;;;;;;;;;;;;;21.30;32.10;97387.53;4889698;29;1112;-73
2022/05/29 02:53:10;;;;;;;;;;;;;;;21.24;31.91;97380.84;4898000;29;963;-74
2022/05/29 02:55:35;;;;;;;;;;;;;;;21.27;31.86;97391.22;4935884;29;1293;-73
2022/05/29 02:58:01;;;;;;;;;;;;;;;21.52;31.89;97383.94;4927215;29;977;-73
2022/05/29 03:00:29;;;;;;;;;;;;;;;21.65;32.66;97387.47;4935817;29;1973;-74
2022/05/29 03:02:57;;;;;;;;;;;;;;;21.71;33.37;97393.34;4936160;29;992;-74
2022/05/29 03:05:28;;;;;;;;;;;;;;;21.90;33.29;97397.88;4935904;29;1004;-74
2022/05/29 03:07:53;;;;;;;;;;;;;;;22.06;32.79;97411.84;4935919;29;1020;-74
2022/05/29 03:10:20;;;;;;;;;;;;;;;21.74;33.14;97423.56;4936176;29;1033;-73
2022/05/29 03:13:00;;;;;;;;;;;;;;;21.59;32.99;97423.28;4935771;29;1051;-74
2022/05/29 03:15:33;;;;;;;;;;;;;;;21.31;32.73;97434.38;4935663;29;924;-74
2022/05/29 03:18:19;;;;;;;;;;;;;;;21.43;32.20;97429.91;4936014;29;1116;-75
2022/05/29 03:20:44;;;;;;;;;;;;;;;21.37;32.19;97417.59;4935474;29;1902;-74
2022/05/29 03:23:10;;;;;;;;;;;;;;;21.47;31.81;97415.66;4935764;29;1215;-74
2022/05/29 03:25:39;;;;;;;;;;;;;;;21.62;31.61;97416.72;4936049;29;986;-73
2022/05/29 03:28:07;;;;;;;;;;;;;;;21.65;31.14;97415.00;4956137;28;1022;-74
2022/05/29 03:30:33;;;;;;;;;;;;;;;21.64;31.29;97414.22;4995648;28;902;-73
2022/05/29 03:32:59;;;;;;;;;;;;;;;21.35;31.75;97422.13;5015393;28;924;-74
2022/05/29 03:35:34;;;;;;;;;;;;;;;21.27;31.50;97433.66;4993725;28;990;-74
2022/05/29 03:38:00;;;;;;;;;;;;;;;21.25;31.77;97450.31;4954790;29;966;-74
2022/05/29 03:40:26;;;;;;;;;;;;;;;21.47;31.26;97460.94;4954917;29;1980;-74
2022/05/29 03:42:52;;;;;;;;;;;;;;;21.25;31.37;97472.97;4974496;28;1043;-73
2022/05/29 03:45:17;;;;;;;;;;;;;;;21.30;31.54;97475.25;4977830;28;961;-73
2022/05/29 03:47:43;;;;;;;;;;;;;;;21.28;31.30;97491.84;4939557;29;1093;-74
2022/05/29 03:50:09;;;;;;;;;;;;;;;21.35;31.05;97484.38;4939204;29;1195;-74
2022/05/29 03:52:35;;;;;;;;;;;;;;;21.36;31.07;97483.16;4939591;29;996;-74
2022/05/29 03:55:00;;;;;;;;;;;;;;;21.32;31.01;97478.41;4939436;29;944;-74
2022/05/29 03:57:26;;;;;;;;;;;;;;;21.23;31.03;97481.09;4939393;29;1032;-74
2022/05/29 03:59:51;;;;;;;;;;;;;;;21.39;30.79;97483.00;4938791;29;1989;-74
2022/05/29 04:02:17;;;;;;;;;;;;;;;21.41;30.76;97486.19;4938860;29;1070;-74
2022/05/29 04:04:43;;;;;;;;;;;;;;;21.27;30.80;97490.25;4939292;29;1019;-74
2022/05/29 04:07:08;;;;;;;;;;;;;;;21.23;31.26;97486.75;4938940;29;1127;-74
2022/05/29 04:12:18;;;;;;;;;;;;;;;21.44;31.44;97470.31;4901184;29;1020;-74
2022/05/29 04:14:43;;;;;;;;;;;;;;;21.81;31.27;97482.78;4885026;29;1067;-73
2022/05/29 04:17:09;;;;;;;;;;;;;;;21.85;31.55;97487.06;4882317;29;958;-74
2022/05/29 04:19:35;;;;;;;;;;;;;;;21.93;31.78;97509.50;4964202;28;1906;-74
2022/05/29 04:22:00;;;;;;;;;;;;;;;21.72;31.81;97523.16;4977342;28;1014;-74
2022/05/29 04:24:26;;;;;;;;;;;;;;;21.36;32.07;97517.13;4977726;28;962;-74
2022/05/29 04:26:51;;;;;;;;;;;;;;;21.45;32.11;97525.69;4938813;29;1040;-74
2022/05/29 04:29:18;;;;;;;;;;;;;;;21.53;31.48;97536.31;4971829;28;921;-74
2022/05/29 04:34:28;;;;;;;;;;;;;;;21.41;31.79;97550.50;4977177;28;951;-74
2022/05/29 04:36:53;;;;;;;;;;;;;;;21.43;31.50;97550.84;4977347;28;1027;-74
2022/05/29 04:39:19;;;;;;;;;;;;;;;21.54;31.38;97551.25;4977258;28;1007;-74
2022/05/29 04:41:44;;;;;;;;;;;;;;;21.37;31.47;97547.00;4976689;28;1898;-74
2022/05/29 04:44:09;;;;;;;;;;;;;;;21.26;31.45;97553.75;4977267;28;964;-74
2022/05/29 04:46:35;;;;;;;;;;;;;;;21.39;31.18;97544.50;4976875;28;970;-74
2022/05/29 04:49:00;;;;;;;;;;;;;;;21.31;31.48;97553.22;4976668;28;1084;-75
2022/05/29 04:51:26;;;;;;;;;;;;;;;21.35;31.20;97560.78;4976599;28;1045;-74
2022/05/29 04:53:51;;;;;;;;;;;;;;;21.18;31.52;97562.91;4976790;28;1132;-74
2022/05/29 04:56:16;;;;;;;;;;;;;;;21.24;31.19;97573.25;4975650;28;1051;-74
2022/05/29 04:58:42;;;;;;;;;;;;;;;21.40;31.11;97580.03;4993414;28;1084;-73
2022/05/29 05:01:07;;;;;;;;;;;;;;;21.42;30.91;97583.22;4963673;28;1895;-73
2022/05/29 05:03:33;;;;;;;;;;;;;;;21.40;30.86;97568.72;4996136;28;1052;-74
2022/05/29 05:05:58;;;;;;;;;;;;;;;21.13;31.30;97569.16;4996460;28;1033;-74
2022/05/29 05:08:24;;;;;;;;;;;;;;;21.21;31.39;97562.81;4996099;28;1028;-74
2022/05/29 05:10:49;;;;;;;;;;;;;;;21.20;31.34;97561.25;4963681;28;1057;-74
2022/05/29 05:13:15;;;;;;;;;;;;;;;21.28;31.37;97573.91;4996193;28;983;-73
2022/05/29 05:15:40;;;;;;;;;;;;;;;21.18;31.43;97568.56;4995806;28;932;-73
2022/05/29 05:18:06;;;;;;;;;;;;;;;21.29;31.23;97569.81;5011656;28;947;-73
2022/05/29 05:20:33;;;;;;;;;;;;;;;21.27;31.09;97566.66;4999462;28;1957;-73
2022/05/29 05:22:58;;;;;;;;;;;;;;;21.56;32.02;97577.09;5017729;28;1189;-73
2022/05/29 05:25:24;;;;;;;;;;;;;;;21.89;31.63;97571.91;5017358;28;899;-74
2022/05/29 05:27:49;;;;;;;;;;;;;;;22.11;31.23;97583.31;5002065;28;1097;-74
2022/05/29 05:30:15;;;;;;;;;;;;;;;21.82;31.62;97589.94;5037193;28;1186;-73
2022/05/29 05:32:40;;;;;;;;;;;;;;;21.56;31.61;97585.59;5036866;28;1322;-73
2022/05/29 05:35:07;;;;;;;;;;;;;;;21.37;31.85;97586.63;5037125;28;1272;-74
2022/05/29 05:37:36;;;;;;;;;;;;;;;21.42;31.96;97588.88;5036580;28;1174;-73
2022/05/29 05:40:05;;;;;;;;;;;;;;;21.44;31.77;97594.88;5036413;28;1898;-73
2022/05/29 05:42:31;;;;;;;;;;;;;;;21.40;31.59;97602.66;5036435;28;1253;-74
2022/05/29 05:44:56;;;;;;;;;;;;;;;21.41;31.17;97610.72;5034959;28;1074;-73
2022/05/29 05:47:22;;;;;;;;;;;;;;;21.43;31.51;97613.09;5037108;28;981;-74
2022/05/29 05:49:48;;;;;;;;;;;;;;;21.32;31.42;97624.75;5034937;28;900;-74
2022/05/29 05:52:14;;;;;;;;;;;;;;;21.35;31.48;97623.88;5036866;28;917;-74
2022/05/29 05:54:40;;;;;;;;;;;;;;;21.28;31.65;97633.31;5036713;28;911;-73
2022/05/29 05:57:06;;;;;;;;;;;;;;;21.25;31.58;97630.63;5034676;28;1010;-74
2022/05/29 05:59:32;;;;;;;;;;;;;;;21.18;31.86;97631.63;5037121;28;1898;-73
2022/05/29 06:01:58;;;;;;;;;;;;;;;21.25;31.45;97631.41;5018288;28;1069;-73
2022/05/29 06:04:23;;;;;;;;;;;;;;;21.29;31.62;97643.38;5034233;28;998;-74
2022/05/29 06:06:49;;;;;;;;;;;;;;;21.26;31.49;97638.66;5034284;28;951;-74
2022/05/29 06:09:14;;;;;;;;;;;;;;;21.26;31.43;97635.81;5034383;28;984;-73
2022/05/29 06:11:40;;;;;;;;;;;;;;;21.28;31.49;97627.66;5033871;28;1243;-74
2022/05/29 06:14:05;;;;;;;;;;;;;;;21.31;31.37;97634.50;5033828;28;1289;-74
2022/05/29 06:16:31;;;;;;;;;;;;;;;21.39;31.33;97640.72;5033299;28;1246;-74
2022/05/29 06:18:56;;;;;;;;;;;;;;;21.23;31.64;97639.53;5033325;28;1285;-74
2022/05/29 06:21:21;;;;;;;;;;;;;;;21.21;31.44;97653.34;5033555;28;1905;-74
2022/05/29 06:23:47;;;;;;;;;;;;;;;21.37;31.31;97648.88;5033235;28;1249;-75
2022/05/29 06:26:13;;;;;;;;;;;;;;;21.23;31.49;97659.34;5024974;28;1388;-74
2022/05/29 06:28:38;;;;;;;;;;;;;;;21.17;31.68;97651.88;5033578;28;1274;-74
2022/05/29 06:31:04;;;;;;;;;;;;;;;21.18;31.32;97645.75;5033113;28;1500;-74
2022/05/29 06:33:30;;;;;;;;;;;;;;;21.31;31.42;97640.94;5033972;28;1218;-74
2022/05/29 06:36:05;;;;;;;;;;;;;;;21.23;31.53;97633.88;5035255;28;979;-74
2022/05/29 06:38:31;;;;;;;;;;;;;;;21.29;31.41;97640.56;5051508;28;972;-74
2022/05/29 06:40:56;;;;;;;;;;;;;;;21.39;31.30;97618.84;5035902;28;2046;-74
2022/05/29 06:43:22;;;;;;;;;;;;;;;21.30;31.37;97616.72;5035975;28;1048;-73
2022/05/29 06:45:47;;;;;;;;;;;;;;;21.25;31.23;97614.44;5036333;28;939;-74
2022/05/29 06:48:14;;;;;;;;;;;;;;;21.18;31.15;97613.84;5036089;28;941;-74
2022/05/29 06:50:40;;;;;;;;;;;;;;;21.30;31.17;97625.22;5036143;28;974;-74
2022/05/29 06:53:05;;;;;;;;;;;;;;;21.31;31.12;97618.31;5035020;28;1359;-74
2022/05/29 06:55:30;;;;;;;;;;;;;;;21.36;30.77;97627.47;5035394;28;1215;-74
2022/05/29 06:57:56;;;;;;;;;;;;;;;21.31;31.10;97623.97;5035388;28;1318;-74
2022/05/29 07:08:40;;;;;;;;;;;;;;;21.21;31.10;97568.47;5034509;28;1024;-74
2022/05/29 07:11:07;;;;;;;;;;;;;;;21.18;30.99;97563.72;5035475;28;932;-74
2022/05/29 07:13:33;;;;;;;;;;;;;;;21.23;31.12;97560.31;5034824;28;909;-74
2022/05/29 07:15:58;;;;;;;;;;;;;;;21.30;31.01;97559.34;5034467;28;923;-74
2022/05/29 07:18:24;;;;;;;;;;;;;;;21.30;30.77;97553.69;5034849;28;811;-74
2022/05/29 07:20:49;;;;;;;;;;;;;;;21.27;30.90;97557.38;5035372;28;1984;-74
2022/05/29 07:23:14;;;;;;;;;;;;;;;21.29;31.03;97552.84;5035456;28;905;-74
2022/05/29 07:25:40;;;;;;;;;;;;;;;21.15;31.12;97556.16;5035537;28;815;-74
2022/05/29 07:28:06;;;;;;;;;;;;;;;21.27;30.88;97541.19;5035641;28;910;-74
2022/05/29 07:30:32;;;;;;;;;;;;;;;21.16;31.12;97515.28;5035361;28;774;-74
2022/05/29 07:32:58;;;;;;;;;;;;;;;21.29;30.88;97510.38;5035758;28;873;-74
2022/05/29 07:35:23;;;;;;;;;;;;;;;21.28;31.09;97477.69;5035145;28;1027;-74
2022/05/29 07:37:49;;;;;;;;;;;;;;;21.39;31.03;97443.38;5035482;28;923;-74
2022/05/29 07:40:14;;;;;;;;;;;;;;;21.67;31.36;97409.69;5035432;28;1918;-74
2022/05/29 07:45:24;;;;;;;;;;;;;;;21.92;31.85;97363.44;5035412;28;960;-75
2022/05/29 07:47:49;;;;;;;;;;;;;;;21.77;31.90;97355.50;5035473;28;999;-75
2022/05/29 07:50:16;;;;;;;;;;;;;;;21.60;32.06;97365.41;5035217;28;1027;-75
2022/05/29 07:52:41;;;;;;;;;;;;;;;21.67;31.66;97370.84;5034162;28;918;-75
2022/05/29 07:55:07;;;;;;;;;;;;;;;21.39;31.75;97372.63;5035560;28;977;-75
2022/05/29 07:57:32;;;;;;;;;;;;;;;21.39;31.98;97374.69;5035521;28;962;-75
2022/05/29 07:59:58;;;;;;;;;;;;;;;21.49;31.77;97368.63;5035106;28;1902;-74
2022/05/29 08:02:23;;;;;;;;;;;;;;;21.44;31.85;97382.59;5034948;28;924;-75
2022/05/29 08:04:50;;;;;;;;;;;;;;;21.45;31.59;97384.16;5035257;28;903;-75
2022/05/29 08:07:16;;;;;;;;;;;;;;;21.40;31.32;97387.56;5035118;28;1031;-75
2022/05/29 08:09:41;;;;;;;;;;;;;;;21.27;31.78;97390.44;5033840;28;894;-74
2022/05/29 08:12:07;;;;;;;;;;;;;;;21.41;31.32;97377.88;5034137;28;987;-75
2022/05/29 08:14:32;;;;;;;;;;;;;;;21.44;31.41;97399.56;5034935;28;928;-75
2022/05/29 08:16:58;;;;;;;;;;;;;;;21.41;31.16;97394.84;5035150;28;902;-75
2022/05/29 08:19:23;;;;;;;;;;;;;;;21.39;31.48;97408.66;5034752;28;973;-74
2022/05/29 08:21:49;;;;;;;;;;;;;;;21.45;31.36;97407.63;5034202;28;1961;-75
2022/05/29 08:32:26;;;;;;;;;;;;;;;21.31;31.27;97437.19;5038519;28;1006;-75
2022/05/29 08:34:52;;;;;;;;;;;;;;;21.26;31.11;97463.22;5038236;28;917;-74
2022/05/29 08:37:17;;;;;;;;;;;;;;;21.22;31.58;97473.84;5038730;28;934;-75
2022/05/29 08:39:43;;;;;;;;;;;;;;;21.33;31.05;97479.97;5036824;28;1902;-75
2022/05/29 08:42:08;;;;;;;;;;;;;;;21.34;31.19;97466.59;5020689;28;1635;-75
2022/05/29 08:44:40;;;;;;;;;;;;;;;21.24;31.25;97462.06;5020242;28;936;-74
2022/05/29 08:47:05;;;;;;;;;;;;;;;21.34;30.94;97477.94;5037083;28;993;-75
2022/05/29 08:49:37;;;;;;;;;;;;;;;21.34;30.97;97486.41;5020216;28;1002;-75
2022/05/29 08:52:04;;;;;;;;;;;;;;;21.43;31.03;97488.56;4995660;28;1282;-75
2022/05/29 08:54:32;;;;;;;;;;;;;;;21.50;30.81;97465.66;4996187;28;967;-75
2022/05/29 08:56:58;;;;;;;;;;;;;;;21.46;30.69;97437.50;4957231;29;955;-75
2022/05/29 08:59:35;;;;;;;;;;;;;;;21.28;30.90;97420.31;4938280;29;1039;-75
2022/05/29 09:02:00;;;;;;;;;;;;;;;21.44;30.76;97434.31;4938046;29;1075;-75
2022/05/29 09:04:33;;;;;;;;;;;;;;;21.35;30.59;97456.91;4938154;29;962;-75
2022/05/29 09:06:59;;;;;;;;;;;;;;;21.43;30.75;97471.59;4906829;29;1013;-75
2022/05/29 09:09:28;;;;;;;;;;;;;;;21.39;30.66;97482.22;4900117;29;1043;-75
2022/05/29 09:11:55;;;;;;;;;;;;;;;21.30;30.97;97497.88;4865766;29;1034;-75
2022/05/29 09:14:24;;;;;;;;;;;;;;;21.44;30.41;97502.25;4865610;29;1075;-75
2022/05/29 09:16:55;;;;;;;;;;;;;;;21.44;30.51;97507.13;4865661;29;924;-75
2022/05/29 09:19:26;;;;;;;;;;;;;;;21.43;30.74;97505.53;4881210;29;1038;-75
2022/05/29 09:21:56;;;;;;;;;;;;;;;21.41;30.81;97513.72;4872831;29;1915;-75
2022/05/29 09:24:36;;;;;;;;;;;;;;;21.47;30.47;97517.53;4854611;29;1203;-75
2022/05/29 09:27:02;;;;;;;;;;;;;;;21.37;30.80;97519.47;4866499;29;1289;-75
2022/05/29 09:29:27;;;;;;;;;;;;;;;21.35;30.77;97515.50;4904110;29;1048;-74
2022/05/29 09:31:53;;;;;;;;;;;;;;;21.36;30.84;97529.22;4937813;29;955;-75
2022/05/29 09:34:18;;;;;;;;;;;;;;;21.26;30.89;97511.31;4937784;29;944;-75
2022/05/29 09:36:50;;;;;;;;;;;;;;;21.53;30.29;97507.22;4937750;29;1041;-75
2022/05/29 09:39:27;;;;;;;;;;;;;;;21.41;30.59;97516.53;4937760;29;1011;-75
2022/05/29 09:42:09;;;;;;;;;;;;;;;21.43;30.57;97522.53;4955894;28;1906;-74
2022/05/29 09:44:35;;;;;;;;;;;;;;;21.42;30.50;97529.44;4940639;29;925;-75
2022/05/29 09:50:01;;;;;;;;;;;;;;;21.43;30.50;97528.19;4918150;29;1055;-75
2022/05/29 09:52:27;;;;;;;;;;;;;;;21.45;30.63;97537.81;4924227;29;1032;-75
2022/05/29 09:54:54;;;;;;;;;;;;;;;21.45;30.79;97525.69;4937411;29;980;-75
2022/05/29 09:57:20;;;;;;;;;;;;;;;21.38;30.64;97543.69;4937736;29;941;-75
2022/05/29 09:59:46;;;;;;;;;;;;;;;21.52;30.32;97536.78;4921685;29;1971;-74
2022/05/29 10:02:18;;;;;;;;;;;;;;;21.46;30.53;97544.28;4921225;29;1024;-74
2022/05/29 10:04:44;;;;;;;;;;;;;;;21.49;30.72;97543.34;4921237;29;961;-74
2022/05/29 10:07:33;;;;;;;;;;;;;;;21.45;30.87;97545.50;4937167;29;1089;-74
2022/05/29 10:09:59;;;;;;;;;;;;;;;21.38;30.92;97551.41;4899069;29;1065;-75
2022/05/29 10:12:45;;;;;;;;;;;;;;;21.47;30.42;97551.50;4899337;29;1160;-75
2022/05/29 10:15:14;;;;;;;;;;;;;;;21.45;30.71;97565.31;4898183;29;2156;-76
2022/05/29 10:17:40;;;;;;;;;;;;;;;21.33;30.86;97575.41;4916491;29;1103;-75
2022/05/29 10:20:26;;;;;;;;;;;;;;;21.37;30.49;97572.47;4917747;29;1899;-75
2022/05/29 10:22:55;;;;;;;;;;;;;;;21.31;30.98;97573.03;4917273;29;1579;-75
2022/05/29 10:25:25;;;;;;;;;;;;;;;21.31;30.64;97563.75;4886335;29;993;-74
2022/05/29 10:27:51;;;;;;;;;;;;;;;21.36;30.50;97562.41;4883537;29;1035;-75
2022/05/29 10:30:29;;;;;;;;;;;;;;;21.49;30.34;97566.00;4861267;29;985;-75
2022/05/29 10:33:05;;;;;;;;;;;;;;;21.47;30.60;97543.03;4861731;29;904;-75
2022/05/29 10:35:32;;;;;;;;;;;;;;;21.31;30.67;97544.72;4861166;29;932;-75
2022/05/29 10:37:57;;;;;;;;;;;;;;;21.43;30.57;97545.16;4861330;29;952;-75
2022/05/29 10:40:25;;;;;;;;;;;;;;;21.41;30.42;97542.81;4861193;29;1903;-74
2022/05/29 10:42:52;;;;;;;;;;;;;;;21.25;30.72;97540.88;4861381;29;1201;-75
2022/05/29 10:45:24;;;;;;;;;;;;;;;21.33;30.86;97536.56;4861292;29;1019;-75
2022/05/29 10:47:52;;;;;;;;;;;;;;;21.41;30.40;97530.69;4925644;29;953;-75
2022/05/29 10:50:20;;;;;;;;;;;;;;;21.39;30.69;97524.69;4955139;29;968;-75
2022/05/29 10:52:57;;;;;;;;;;;;;;;21.32;30.60;97529.34;4954743;28;1174;-75
2022/05/29 10:55:25;;;;;;;;;;;;;;;21.31;30.65;97510.78;4955446;29;953;-75
2022/05/29 10:58:09;;;;;;;;;;;;;;;21.28;30.83;97508.81;4955625;29;979;-75
2022/05/29 11:00:44;;;;;;;;;;;;;;;21.37;30.91;97510.19;4963005;28;1902;-75
2022/05/29 11:03:21;;;;;;;;;;;;;;;21.47;30.54;97506.22;4994245;28;857;-75
2022/05/29 11:05:49;;;;;;;;;;;;;;;21.40;30.95;97504.44;4962259;28;928;-75
2022/05/29 11:08:20;;;;;;;;;;;;;;;21.44;30.77;97499.41;4974516;28;1157;-75
2022/05/29 11:11:04;;;;;;;;;;;;;;;21.35;31.00;97493.69;4974316;28;999;-75
2022/05/29 11:13:32;;;;;;;;;;;;;;;21.36;30.88;97483.16;4974922;28;998;-75
2022/05/29 11:16:16;;;;;;;;;;;;;;;21.60;30.32;97487.16;4974516;28;942;-75
2022/05/29 11:18:47;;;;;;;;;;;;;;;21.41;30.63;97482.56;4935754;29;1595;-75
2022/05/29 11:21:31;;;;;;;;;;;;;;;21.38;30.70;97475.00;4929953;29;1989;-75
2022/05/29 11:23:59;;;;;;;;;;;;;;;21.43;30.84;97471.59;4916872;29;1479;-75
2022/05/29 11:26:43;;;;;;;;;;;;;;;21.63;30.45;97474.13;4935579;29;1311;-75
2022/05/29 11:29:22;;;;;;;;;;;;;;;21.49;30.80;97464.88;4934178;29;1193;-75
2022/05/29 11:32:02;;;;;;;;;;;;;;;21.39;30.68;97459.59;4877929;29;1652;-75
2022/05/29 11:34:31;;;;;;;;;;;;;;;21.29;31.15;97455.84;4877968;29;1237;-75
2022/05/29 11:36:59;;;;;;;;;;;;;;;21.30;31.17;97446.94;4863698;29;967;-75
2022/05/29 11:39:26;;;;;;;;;;;;;;;21.32;31.20;97444.44;4868954;29;972;-75
2022/05/29 11:41:54;;;;;;;;;;;;;;;21.49;30.86;97441.44;4865643;29;1923;-75
2022/05/29 11:44:25;;;;;;;;;;;;;;;21.33;30.86;97446.00;4853310;29;1302;-74
2022/05/29 11:52:32;;;;;;;;;;;;;;;21.41;30.89;97440.13;4840021;29;1076;-74
2022/05/29 11:54:57;;;;;;;;;;;;;;;21.24;31.15;97443.09;4870040;29;1016;-74
2022/05/29 11:57:25;;;;;;;;;;;;;;;21.41;30.98;97442.97;4879120;29;1132;-74
2022/05/29 11:59:57;;;;;;;;;;;;;;;21.51;30.77;97450.28;4879017;29;1915;-74
2022/05/29 12:02:41;;;;;;;;;;;;;;;21.54;30.70;97444.47;4897727;29;1037;-74
2022/05/29 12:05:07;;;;;;;;;;;;;;;21.42;30.76;97442.50;4937887;29;997;-73
2022/05/29 12:07:34;;;;;;;;;;;;;;;21.57;30.45;97437.13;4939224;29;1027;-74
2022/05/29 12:09:59;;;;;;;;;;;;;;;21.44;30.81;97439.19;4939049;29;999;-74
2022/05/29 12:12:26;;;;;;;;;;;;;;;21.51;30.86;97416.31;4939081;29;1047;-73
2022/05/29 12:15:01;;;;;;;;;;;;;;;21.47;30.71;97422.09;4939252;29;1043;-74
2022/05/29 12:17:49;;;;;;;;;;;;;;;21.54;30.49;97423.88;4939113;29;1109;-74
2022/05/29 12:20:19;;;;;;;;;;;;;;;21.35;31.20;97430.59;4938366;29;1902;-73
2022/05/29 12:22:45;;;;;;;;;;;;;;;21.53;30.45;97427.97;4957768;29;1110;-74
2022/05/29 12:25:34;;;;;;;;;;;;;;;21.55;30.68;97433.94;4958205;29;989;-74
2022/05/29 12:28:01;;;;;;;;;;;;;;;21.54;30.56;97438.03;4900611;29;1132;-74
2022/05/29 12:30:29;;;;;;;;;;;;;;;21.43;31.11;97431.97;4900840;29;1098;-74
2022/05/29 12:32:55;;;;;;;;;;;;;;;21.41;31.04;97429.59;4900759;29;960;-74
2022/05/29 12:35:21;;;;;;;;;;;;;;;21.38;30.99;97424.84;4900871;29;1297;-74
2022/05/29 12:38:05;;;;;;;;;;;;;;;21.31;30.89;97430.75;4901032;29;991;-73
2022/05/29 12:40:30;;;;;;;;;;;;;;;21.41;30.96;97440.13;4900896;29;1899;-74
2022/05/29 12:42:58;;;;;;;;;;;;;;;21.41;30.95;97426.75;4913794;29;1249;-73
2022/05/29 12:45:33;;;;;;;;;;;;;;;21.31;30.78;97428.72;4919613;29;1141;-74
2022/05/29 12:48:16;;;;;;;;;;;;;;;21.48;30.59;97435.00;4919762;29;924;-73
2022/05/29 12:50:52;;;;;;;;;;;;;;;21.43;30.91;97429.13;4919341;29;1053;-73
2022/05/29 12:53:29;;;;;;;;;;;;;;;21.46;30.79;97425.41;4913372;29;1054;-73
2022/05/29 12:56:13;;;;;;;;;;;;;;;21.50;30.81;97428.88;4900553;29;1025;-74
2022/05/29 12:58:47;;;;;;;;;;;;;;;21.45;31.01;97416.13;4938137;29;1115;-73
2022/05/29 13:01:12;;;;;;;;;;;;;;;21.46;30.75;97419.72;4938267;29;1990;-74
2022/05/29 13:03:56;;;;;;;;;;;;;;;21.44;30.91;97425.03;4938385;29;1150;-74
2022/05/29 13:06:34;;;;;;;;;;;;;;;21.57;30.78;97420.13;4998924;28;960;-74
2022/05/29 13:08:59;;;;;;;;;;;;;;;21.43;30.83;97420.63;4998452;28;1012;-74
2022/05/29 13:11:31;;;;;;;;;;;;;;;21.41;30.86;97417.47;4998932;28;948;-74
2022/05/29 13:13:58;;;;;;;;;;;;;;;21.45;31.03;97407.63;4997172;28;1194;-74
2022/05/29 13:16:36;;;;;;;;;;;;;;;21.67;30.54;97396.31;4996153;28;1126;-74
2022/05/29 13:19:14;;;;;;;;;;;;;;;21.51;30.88;97390.84;4998310;28;1204;-74
2022/05/29 13:21:55;;;;;;;;;;;;;;;21.46;30.97;97383.72;4997966;28;1971;-73
2022/05/29 13:24:21;;;;;;;;;;;;;;;21.46;30.90;97386.56;4998180;28;994;-73
2022/05/29 13:27:07;;;;;;;;;;;;;;;21.38;30.85;97395.75;4996827;28;1040;-74
2022/05/29 13:29:37;;;;;;;;;;;;;;;21.49;30.85;97404.66;4998204;28;1000;-74
2022/05/29 13:32:14;;;;;;;;;;;;;;;21.50;30.59;97407.03;4998268;28;916;-73
2022/05/29 13:34:40;;;;;;;;;;;;;;;21.47;30.76;97399.44;4998231;28;929;-74
2022/05/29 13:37:07;;;;;;;;;;;;;;;21.31;30.80;97403.25;4996747;28;874;-74
2022/05/29 13:39:36;;;;;;;;;;;;;;;21.45;30.81;97389.81;4996703;28;1092;-73
2022/05/29 13:42:11;;;;;;;;;;;;;;;21.43;30.77;97403.66;5004032;28;1907;-74
2022/05/29 13:44:37;;;;;;;;;;;;;;;21.41;30.63;97417.47;5016259;28;893;-73